createdAt,value
2022-12-28T00:01:27.845Z,33.28
2022-12-28T00:03:58.757Z,34.30
2022-12-28T00:06:26.788Z,34.20
2022-12-28T00:08:57.420Z,30.70
2022-12-28T00:11:28.116Z,32.47
2022-12-28T00:14:00.917Z,33.35
2022-12-28T00:16:39.678Z,25.70
2022-12-28T00:19:11.696Z,28.80
2022-12-28T00:21:38.555Z,29.60
2022-12-28T00:24:06.139Z,30.75
2022-12-28T00:26:34.516Z,30.80
2022-12-28T00:29:05.320Z,37.40
2022-12-28T00:31:34.428Z,26.20
2022-12-28T00:34:02.116Z,23.60
2022-12-28T00:37:09.482Z,27.95
2022-12-28T00:39:15.886Z,29.38
2022-12-28T00:41:42.710Z,30.35
2022-12-28T00:44:10.652Z,27.83
2022-12-28T00:46:37.729Z,33.40
2022-12-28T00:49:04.644Z,27.35
2022-12-28T00:51:31.610Z,31.52
2022-12-28T00:53:58.516Z,28.55
2022-12-28T00:56:25.461Z,29.13
2022-12-28T00:58:57.641Z,29.88
2022-12-28T01:01:26.683Z,32.53
2022-12-28T01:03:57.081Z,29.42
2022-12-28T01:06:24.429Z,32.70
2022-12-28T01:08:51.653Z,30.08
2022-12-28T01:11:23.426Z,28.60
2022-12-28T01:13:51.644Z,25.80
2022-12-28T01:16:25.807Z,31.65
2022-12-28T01:18:55.273Z,31.45
2022-12-28T01:21:25.074Z,34.78
2022-12-28T01:23:56.021Z,30.52
2022-12-28T01:26:23.527Z,29.20
2022-12-28T01:28:50.542Z,26.90
2022-12-28T01:31:19.200Z,26.08
2022-12-28T01:33:46.380Z,31.17
2022-12-28T01:36:19.735Z,26.42
2022-12-28T01:38:47.549Z,25.90
2022-12-28T01:41:17.825Z,27.05
2022-12-28T01:43:48.200Z,24.50
2022-12-28T01:46:23.183Z,32.67
2022-12-28T01:49:00.088Z,27.95
2022-12-28T01:51:33.268Z,31.23
2022-12-28T01:54:01.939Z,30.08
2022-12-28T01:56:29.165Z,25.88
2022-12-28T01:58:57.931Z,23.58
2022-12-28T02:01:43.759Z,24.02
2022-12-28T02:04:11.211Z,26.42
2022-12-28T02:06:38.230Z,31.42
2022-12-28T02:09:13.575Z,24.33
2022-12-28T02:11:41.553Z,25.17
2022-12-28T02:14:09.395Z,24.80
2022-12-28T02:16:36.272Z,28.25
2022-12-28T02:19:04.761Z,25.23
2022-12-28T02:22:17.768Z,28.92
2022-12-28T02:25:11.596Z,25.13
2022-12-28T02:28:02.905Z,26.17
2022-12-28T02:30:35.375Z,30.25
2022-12-28T02:33:36.771Z,29.25
2022-12-28T02:36:18.627Z,30.30
2022-12-28T02:38:53.989Z,27.85
2022-12-28T02:41:24.689Z,32.08
2022-12-28T02:43:53.237Z,30.63
2022-12-28T02:46:44.236Z,35.22
2022-12-28T02:49:39.377Z,39.42
2022-12-28T02:52:15.124Z,43.17
2022-12-28T02:55:12.556Z,40.57
2022-12-28T02:58:13.329Z,41.53
2022-12-28T03:00:52.253Z,37.25
2022-12-28T03:03:50.930Z,37.22
2022-12-28T03:06:48.811Z,32.20
2022-12-28T03:09:47.787Z,38.10
2022-12-28T03:12:26.716Z,34.35
2022-12-28T03:15:10.670Z,33.47
2022-12-28T03:18:01.041Z,29.40
2022-12-28T03:20:50.401Z,36.90
2022-12-28T03:23:41.428Z,28.40
2022-12-28T03:26:30.002Z,32.22
2022-12-28T03:29:18.936Z,26.63
2022-12-28T03:31:45.989Z,26.02
2022-12-28T03:34:14.632Z,25.27
2022-12-28T03:37:10.653Z,32.97
2022-12-28T03:39:48.298Z,28.80
2022-12-28T03:42:45.409Z,31.27
2022-12-28T03:45:47.426Z,31.77
2022-12-28T03:48:16.037Z,30.70
2022-12-28T03:50:46.195Z,31.55
2022-12-28T03:53:13.525Z,30.50
2022-12-28T03:55:40.756Z,25.63
2022-12-28T03:58:07.593Z,26.73
2022-12-28T04:00:34.630Z,29.42
2022-12-28T04:03:01.475Z,30.88
2022-12-28T04:05:28.411Z,32.38
2022-12-28T04:07:55.246Z,29.13
2022-12-28T04:10:22.208Z,26.77
2022-12-28T04:12:49.236Z,27.80
2022-12-28T04:15:16.045Z,29.02
2022-12-28T04:17:42.900Z,29.90
2022-12-28T04:20:09.935Z,26.30
2022-12-28T04:22:36.779Z,26.23
2022-12-28T04:25:03.852Z,22.20
2022-12-28T04:27:30.732Z,34.15
2022-12-28T04:29:57.517Z,36.65
2022-12-28T04:32:24.378Z,31.95
2022-12-28T04:34:51.199Z,30.15
2022-12-28T04:37:18.027Z,29.98
2022-12-28T04:39:56.232Z,28.60
2022-12-28T04:42:26.690Z,33.20
2022-12-28T04:44:53.849Z,29.75
2022-12-28T04:47:20.908Z,23.98
2022-12-28T04:49:47.761Z,27.65
2022-12-28T04:52:14.902Z,31.10
2022-12-28T04:54:41.854Z,30.92
2022-12-28T04:57:08.637Z,24.52
2022-12-28T04:59:35.477Z,27.00
2022-12-28T05:02:02.443Z,43.95
2022-12-28T05:04:29.349Z,28.33
2022-12-28T05:06:56.146Z,26.88
2022-12-28T05:09:22.968Z,34.00
2022-12-28T05:11:49.850Z,63.60
2022-12-28T05:14:16.707Z,59.95
2022-12-28T05:16:43.490Z,51.78
2022-12-28T05:19:10.296Z,36.25
2022-12-28T05:21:37.157Z,38.75
2022-12-28T05:24:04.163Z,44.38
2022-12-28T05:26:31.004Z,45.53
2022-12-28T05:28:59.079Z,41.10
2022-12-28T05:31:26.602Z,40.20
2022-12-28T05:33:53.923Z,39.38
2022-12-28T05:36:25.820Z,44.53
2022-12-28T05:38:53.852Z,36.92
2022-12-28T05:41:29.432Z,33.67
2022-12-28T05:43:58.103Z,38.15
2022-12-28T05:46:27.984Z,41.60
2022-12-28T05:48:55.653Z,35.60
2022-12-28T05:51:24.848Z,45.17
2022-12-28T05:53:51.671Z,42.85
2022-12-28T05:56:21.199Z,51.50
2022-12-28T05:58:56.364Z,50.30
2022-12-28T06:01:25.619Z,48.40
2022-12-28T06:03:56.179Z,40.38
2022-12-28T06:06:23.661Z,54.00
2022-12-28T06:08:51.151Z,52.28
2022-12-28T06:11:22.878Z,46.17
2022-12-28T06:13:50.650Z,44.53
2022-12-28T06:16:21.359Z,47.05
2022-12-28T06:18:48.303Z,47.60
2022-12-28T06:21:19.903Z,44.83
2022-12-28T06:23:47.655Z,43.30
2022-12-28T06:26:17.214Z,50.03
2022-12-28T06:28:44.195Z,43.47
2022-12-28T06:31:20.589Z,44.90
2022-12-28T06:33:48.806Z,43.55
2022-12-28T06:36:21.560Z,49.47
2022-12-28T06:38:53.153Z,50.88
2022-12-28T06:41:21.505Z,57.65
2022-12-28T06:43:50.031Z,63.97
2022-12-28T06:46:19.365Z,57.85
2022-12-28T06:48:46.735Z,57.28
2022-12-28T06:51:20.163Z,60.80
2022-12-28T06:53:48.488Z,49.55
2022-12-28T06:56:20.707Z,55.58
2022-12-28T06:58:49.415Z,51.38
2022-12-28T07:01:23.930Z,61.55
2022-12-28T07:03:52.919Z,69.95
2022-12-28T07:06:22.172Z,91.65
2022-12-28T07:08:49.961Z,89.53
2022-12-28T07:11:22.152Z,82.88
2022-12-28T07:13:49.257Z,87.38
2022-12-28T07:16:21.724Z,72.22
2022-12-28T07:18:49.521Z,62.78
2022-12-28T07:21:25.694Z,84.60
2022-12-28T07:23:54.241Z,70.07
2022-12-28T07:26:23.269Z,72.30
2022-12-28T07:28:53.051Z,67.72
2022-12-28T07:31:23.175Z,63.00
2022-12-28T07:33:51.860Z,63.50
2022-12-28T07:36:20.853Z,76.43
2022-12-28T07:38:48.748Z,77.05
2022-12-28T07:41:24.853Z,78.18
2022-12-28T07:43:51.893Z,74.97
2022-12-28T07:46:25.011Z,81.97
2022-12-28T07:48:53.016Z,75.47
2022-12-28T07:51:35.149Z,85.50
2022-12-28T07:54:02.978Z,75.25
2022-12-28T07:56:30.664Z,81.60
2022-12-28T07:59:00.414Z,84.25
2022-12-28T08:01:30.408Z,84.85
2022-12-28T08:17:14.833Z,107.57
2022-12-28T11:33:02.147Z,37.87
2022-12-28T11:35:32.139Z,33.85
2022-12-28T11:38:02.339Z,31.42
2022-12-28T11:40:52.858Z,25.60
2022-12-28T11:43:32.552Z,21.65
2022-12-28T11:46:05.238Z,29.05
2022-12-28T11:48:47.795Z,49.08
2022-12-28T11:51:20.648Z,31.92
2022-12-28T11:53:47.863Z,18.38
2022-12-28T11:56:16.915Z,17.95
2022-12-28T11:58:48.372Z,21.83
2022-12-28T12:01:27.445Z,20.48
2022-12-28T12:04:10.422Z,23.15
2022-12-28T12:06:46.331Z,20.20
2022-12-28T12:09:22.505Z,24.87
2022-12-28T12:11:51.820Z,33.17
2022-12-28T12:14:33.442Z,23.55
2022-12-28T12:17:06.164Z,25.48
2022-12-28T12:19:54.243Z,22.08
2022-12-28T12:22:32.507Z,20.67
2022-12-28T12:25:15.548Z,30.67
2022-12-28T12:27:49.038Z,32.58
2022-12-28T12:30:18.317Z,16.48
2022-12-28T12:32:47.083Z,17.45
2022-12-28T12:35:17.005Z,17.40
2022-12-28T12:38:05.036Z,19.13
2022-12-28T12:40:37.836Z,16.50
2022-12-28T12:43:30.942Z,18.35
2022-12-28T12:46:07.316Z,20.88
2022-12-28T12:49:05.081Z,15.75
2022-12-28T12:54:24.636Z,32.78
2022-12-28T12:56:58.914Z,23.85
2022-12-28T12:59:44.551Z,20.63
2022-12-28T13:02:50.639Z,21.15
2022-12-28T13:05:21.978Z,54.25
2022-12-28T13:07:50.414Z,54.70
2022-12-28T13:10:26.599Z,87.10
2022-12-28T13:12:58.279Z,33.50
2022-12-28T13:15:28.380Z,24.60
2022-12-28T13:18:18.209Z,20.67
2022-12-28T13:21:00.839Z,26.25
2022-12-28T13:23:31.003Z,34.10
2022-12-28T13:26:03.188Z,30.42
2022-12-28T13:28:34.206Z,32.05
2022-12-28T13:31:33.531Z,36.78
2022-12-28T13:34:03.944Z,28.45
2022-12-28T13:36:31.373Z,27.67
2022-12-28T13:39:14.360Z,33.80
2022-12-28T13:41:51.975Z,32.47
2022-12-28T13:44:29.250Z,44.92
2022-12-28T13:47:08.729Z,37.75
2022-12-28T13:49:42.256Z,29.00
2022-12-28T13:52:14.933Z,25.48
2022-12-28T13:54:47.408Z,24.42
2022-12-28T14:00:05.478Z,41.80
2022-12-28T14:02:34.924Z,28.58
2022-12-28T14:05:03.754Z,35.78
2022-12-28T14:07:31.276Z,32.15
2022-12-28T14:09:58.908Z,43.10
2022-12-28T14:12:27.713Z,25.92
2022-12-28T14:14:55.336Z,33.97
2022-12-28T14:17:23.500Z,40.97
2022-12-28T14:19:50.876Z,33.05
2022-12-28T14:22:34.081Z,35.92
2022-12-28T14:25:07.540Z,49.33
2022-12-28T14:27:39.297Z,42.10
2022-12-28T14:30:20.852Z,44.80
2022-12-28T14:32:48.573Z,43.67
2022-12-28T14:35:19.805Z,40.13
2022-12-28T14:37:52.859Z,37.50
2022-12-28T14:40:33.486Z,46.50
2022-12-28T14:43:11.213Z,47.78
2022-12-28T14:46:17.313Z,44.35
2022-12-28T14:48:45.836Z,56.58
2022-12-28T14:51:17.473Z,65.15
2022-12-28T14:56:35.430Z,60.10
2022-12-28T14:59:03.959Z,51.88
2022-12-28T15:00:26.607Z,55.92
2022-12-28T15:01:46.366Z,56.95
2022-12-28T15:04:50.234Z,53.67
2022-12-28T15:07:18.673Z,57.80
2022-12-28T15:09:47.439Z,60.83
2022-12-28T15:12:23.270Z,55.35
2022-12-28T15:14:50.428Z,52.78
2022-12-28T15:17:18.090Z,41.97
2022-12-28T15:19:45.961Z,48.40
2022-12-28T15:22:13.495Z,54.03
2022-12-28T15:24:45.567Z,52.63
2022-12-28T15:27:12.953Z,55.97
2022-12-28T15:30:04.474Z,56.03
2022-12-28T15:32:27.457Z,49.00
2022-12-28T15:34:54.763Z,50.75
2022-12-28T15:37:22.091Z,46.58
2022-12-28T15:39:49.457Z,70.40
2022-12-28T15:42:16.622Z,49.40
2022-12-28T15:44:46.520Z,51.42
2022-12-28T15:47:17.825Z,51.15
2022-12-28T15:49:44.861Z,45.38
2022-12-28T15:52:12.075Z,41.92
2022-12-28T15:54:45.291Z,43.97
2022-12-28T15:57:16.090Z,47.72
2022-12-28T15:59:43.451Z,52.28
2022-12-28T16:02:11.700Z,62.50
2022-12-28T16:04:39.025Z,79.63
2022-12-28T16:07:06.454Z,64.00
2022-12-28T16:09:33.695Z,82.88
2022-12-28T16:12:00.950Z,118.68
2022-12-28T16:14:28.024Z,96.88
2022-12-28T16:16:55.267Z,116.28
2022-12-28T16:19:22.376Z,108.53
2022-12-28T16:21:51.558Z,128.05
2022-12-28T16:24:21.423Z,132.07
2022-12-28T16:26:48.579Z,122.47
2022-12-28T16:29:15.642Z,139.18
2022-12-28T16:31:43.701Z,133.63
2022-12-28T16:34:16.604Z,115.22
2022-12-28T16:36:46.269Z,121.90
2022-12-28T16:39:15.475Z,123.65
2022-12-28T16:41:42.903Z,118.45
2022-12-28T16:44:18.540Z,108.60
2022-12-28T16:46:46.245Z,103.07
2022-12-28T16:49:22.083Z,92.57
2022-12-28T16:51:49.269Z,101.40
2022-12-28T16:54:21.858Z,86.93
2022-12-28T16:56:50.690Z,106.68
2022-12-28T16:59:34.917Z,82.70
2022-12-28T17:02:02.346Z,84.25
2022-12-28T17:04:30.176Z,82.63
2022-12-28T17:06:57.268Z,83.03
2022-12-28T17:09:25.376Z,81.25
2022-12-28T17:11:52.249Z,72.07
2022-12-28T17:17:07.564Z,79.10
2022-12-28T17:19:35.470Z,88.75
2022-12-28T17:22:02.816Z,94.72
2022-12-28T17:24:29.899Z,92.82
2022-12-28T17:27:03.468Z,91.85
2022-12-28T17:29:34.530Z,92.63
2022-12-28T17:32:02.019Z,108.55
2022-12-28T17:34:29.663Z,102.53
2022-12-28T17:36:56.721Z,102.72
2022-12-28T17:39:23.737Z,104.38
2022-12-28T17:41:50.926Z,98.38
2022-12-28T17:44:18.396Z,102.97
2022-12-28T17:46:45.439Z,112.85
2022-12-28T17:49:15.121Z,120.03
2022-12-28T17:51:43.801Z,118.03
2022-12-28T17:54:12.124Z,123.20
2022-12-28T17:56:39.893Z,125.95
2022-12-28T17:59:07.161Z,125.68
2022-12-28T18:01:34.621Z,116.70
2022-12-28T18:04:01.763Z,119.75
2022-12-28T18:06:31.316Z,132.32
2022-12-28T18:08:58.844Z,119.75
2022-12-28T18:11:47.614Z,127.53
2022-12-28T18:14:16.064Z,117.13
2022-12-28T18:16:49.197Z,129.63
2022-12-28T18:19:24.698Z,141.73
2022-12-28T18:21:52.155Z,116.32
2022-12-28T18:24:21.385Z,142.32
2022-12-28T18:26:48.580Z,254.10
2022-12-28T18:29:21.781Z,165.95
2022-12-28T18:31:48.706Z,256.13
2022-12-28T18:34:17.062Z,260.83
2022-12-28T18:36:47.939Z,250.93
2022-12-28T18:39:15.009Z,255.15
2022-12-28T18:41:42.055Z,231.35
2022-12-28T18:44:08.990Z,219.00
2022-12-28T18:46:36.168Z,192.65
2022-12-28T18:49:03.381Z,175.02
2022-12-28T18:51:30.468Z,177.73
2022-12-28T18:53:57.634Z,179.50
2022-12-28T18:56:24.813Z,179.05
2022-12-28T18:58:54.005Z,188.43
2022-12-28T19:04:12.461Z,212.70
2022-12-28T19:06:40.502Z,226.80
2022-12-28T19:09:08.984Z,248.45
2022-12-28T19:11:46.069Z,263.63
2022-12-28T19:14:19.746Z,273.10
2022-12-28T19:16:47.005Z,272.17
2022-12-28T19:19:14.012Z,274.27
2022-12-28T19:21:47.925Z,270.33
2022-12-28T19:24:17.011Z,282.77
2022-12-28T19:26:46.435Z,264.98
2022-12-28T19:29:15.958Z,259.17
2022-12-28T19:31:43.502Z,251.95
2022-12-28T19:34:10.734Z,245.23
2022-12-28T19:36:40.101Z,247.25
2022-12-28T19:39:15.506Z,236.93
2022-12-28T19:41:42.472Z,251.57
2022-12-28T19:44:09.357Z,250.40
2022-12-28T19:46:36.337Z,235.75
2022-12-28T19:49:04.878Z,240.02
2022-12-28T19:51:56.346Z,209.02
2022-12-28T19:54:23.559Z,201.00
2022-12-28T19:56:50.793Z,214.23
2022-12-28T19:59:17.951Z,204.43
2022-12-28T20:01:45.173Z,211.55
2022-12-28T20:04:19.343Z,204.35
2022-12-28T20:06:53.711Z,207.20
2022-12-28T20:09:20.761Z,194.50
2022-12-28T20:11:48.479Z,192.73
2022-12-28T20:14:21.658Z,208.23
2022-12-28T20:16:52.247Z,208.95
2022-12-28T20:19:19.389Z,211.15
2022-12-28T20:21:46.585Z,181.98
2022-12-28T20:24:13.712Z,189.88
2022-12-28T20:26:41.139Z,183.18
2022-12-28T20:29:08.191Z,185.52
2022-12-28T20:31:35.409Z,174.35
2022-12-28T20:34:02.532Z,173.38
2022-12-28T20:36:31.348Z,168.35
2022-12-28T20:38:58.756Z,159.38
2022-12-28T20:41:57.390Z,151.40
2022-12-28T20:44:28.431Z,170.88
2022-12-28T20:46:56.898Z,184.80
2022-12-28T20:49:26.499Z,194.35
2022-12-28T20:51:54.669Z,195.93
2022-12-28T20:54:21.929Z,191.18
2022-12-28T20:56:54.298Z,188.43
2022-12-28T20:59:25.296Z,184.55
2022-12-28T21:01:53.430Z,177.00
2022-12-28T21:04:20.913Z,184.38
2022-12-28T21:06:47.995Z,168.68
2022-12-28T21:09:14.855Z,159.52
2022-12-28T21:11:41.709Z,149.73
2022-12-28T21:14:08.680Z,144.05
2022-12-28T21:16:35.538Z,140.75
2022-12-28T21:19:02.398Z,133.75
2022-12-28T21:21:29.332Z,123.13
2022-12-28T21:23:56.312Z,117.75
2022-12-28T21:26:23.425Z,120.93
2022-12-28T21:28:50.457Z,136.75
2022-12-28T21:31:17.478Z,133.80
2022-12-28T21:33:44.494Z,129.13
2022-12-28T21:36:15.751Z,111.10
2022-12-28T21:38:43.924Z,112.70
2022-12-28T21:41:15.393Z,114.68
2022-12-28T21:43:42.618Z,109.85
2022-12-28T21:46:13.484Z,104.43
2022-12-28T21:48:41.284Z,99.30
2022-12-28T21:51:31.717Z,99.18
2022-12-28T21:54:00.172Z,88.05
2022-12-28T21:56:28.041Z,92.47
2022-12-28T21:58:55.999Z,91.25
2022-12-28T22:01:42.137Z,85.85
2022-12-28T22:04:35.683Z,83.07
2022-12-28T22:07:04.266Z,91.75
2022-12-28T22:09:49.863Z,92.63
2022-12-28T22:12:35.423Z,92.95
2022-12-28T22:15:29.297Z,104.28
2022-12-28T22:18:02.557Z,98.68
2022-12-28T22:20:30.547Z,98.30
2022-12-28T22:23:00.692Z,102.07
2022-12-28T22:25:30.187Z,91.13
2022-12-28T22:27:57.610Z,84.53
2022-12-28T22:30:25.946Z,81.22
2022-12-28T22:32:53.385Z,76.68
2022-12-28T22:35:21.007Z,76.88
2022-12-28T22:37:48.519Z,72.28
2022-12-28T22:40:18.841Z,68.00
2022-12-28T22:42:48.366Z,71.07
2022-12-28T22:45:18.244Z,68.60
2022-12-28T22:47:45.708Z,70.15
2022-12-28T22:50:15.394Z,70.28
2022-12-28T22:52:42.986Z,71.88
2022-12-28T22:55:11.056Z,67.55
2022-12-28T22:57:38.383Z,74.00
2022-12-28T23:00:09.130Z,73.00
2022-12-28T23:02:36.764Z,69.20
2022-12-28T23:05:04.531Z,68.43
2022-12-28T23:07:32.185Z,70.47
2022-12-28T23:09:59.318Z,82.72
2022-12-28T23:12:26.254Z,83.90
2022-12-28T23:15:11.804Z,93.63
2022-12-28T23:17:39.014Z,90.15
2022-12-28T23:20:25.103Z,78.60
2022-12-28T23:23:11.021Z,77.18
2022-12-28T23:25:59.550Z,81.30
2022-12-28T23:28:27.541Z,81.82
2022-12-28T23:30:56.821Z,78.40
2022-12-28T23:33:24.586Z,75.63
2022-12-28T23:35:51.823Z,71.28
2022-12-28T23:38:19.096Z,71.93
2022-12-28T23:40:46.046Z,66.57
2022-12-28T23:43:12.953Z,62.10
2022-12-28T23:45:40.027Z,55.63
2022-12-28T23:48:07.293Z,51.92
2022-12-28T23:50:35.022Z,50.75
2022-12-28T23:53:01.957Z,55.15
2022-12-28T23:55:29.170Z,46.55
2022-12-28T23:57:56.156Z,48.53
